Time;durP1;ratioP1;P1;durP2;ratioP2;P2;SDS_P1;SDS_P2;PMS_P1;PMS_P2;Temp;Humidity;BMP_temperature;BMP_pressure;BME280_temperature;BME280_humidity;BME280_pressure;Samples;Min_cycle;Max_cycle;Signal;HPM_P1;HPM_P2
2023/03/31 00:02:21;;;;;;;;;;;;;;;10.07;51.03;99856.13;4972706;28;19918;-89
2023/03/31 00:04:52;;;;;;;;;;;;;;;9.90;51.14;99856.28;4972659;28;19914;-89
2023/03/31 00:07:20;;;;;;;;;;;;;;;9.98;50.87;99853.59;4972067;28;19977;-89
2023/03/31 00:09:46;;;;;;;;;;;;;;;9.98;50.20;99854.44;4969114;28;20028;-91
2023/03/31 00:12:12;;;;;;;;;;;;;;;9.94;51.11;99847.44;4973475;28;19914;-92
2023/03/31 00:14:38;;;;;;;;;;;;;;;10.01;51.35;99850.91;4971627;28;19914;-92
2023/03/31 00:17:03;;;;;;;;;;;;;;;10.04;50.79;99858.78;4971971;28;19924;-90
2023/03/31 00:19:32;;;;;;;;;;;;;;;9.95;50.43;99854.47;4972125;28;20015;-94
2023/03/31 00:22:00;;;;;;;;;;;;;;;9.96;49.46;99847.44;4971273;28;19917;-91
2023/03/31 00:24:33;;;;;;;;;;;;;;;9.95;48.99;99849.19;4973224;28;19961;-92
2023/03/31 00:27:00;;;;;;;;;;;;;;;9.97;49.12;99846.56;4972531;28;19914;-93
2023/03/31 00:29:25;;;;;;;;;;;;;;;9.96;49.60;99839.53;4972129;28;20388;-92
2023/03/31 00:31:51;;;;;;;;;;;;;;;10.03;50.17;99835.94;4971332;28;19925;-92
2023/03/31 00:34:17;;;;;;;;;;;;;;;10.09;50.25;99832.38;4971395;28;19999;-92
2023/03/31 00:36:48;;;;;;;;;;;;;;;10.09;50.81;99832.38;4971543;28;19914;-92
2023/03/31 00:39:16;;;;;;;;;;;;;;;10.06;50.02;99830.63;4971862;28;19918;-92
2023/03/31 00:41:42;;;;;;;;;;;;;;;10.04;49.63;99832.44;4955234;28;19914;-91
2023/03/31 00:44:07;;;;;;;;;;;;;;;9.97;49.48;99828.97;4973234;28;19922;-92
2023/03/31 00:46:36;;;;;;;;;;;;;;;9.92;50.96;99829.94;4972172;28;19921;-95
2023/03/31 00:49:01;;;;;;;;;;;;;;;9.97;51.17;99825.47;4958375;28;19918;-90
2023/03/31 00:51:28;;;;;;;;;;;;;;;9.89;51.82;99828.19;4955697;28;19921;-90
2023/03/31 00:53:59;;;;;;;;;;;;;;;10.06;51.22;99814.84;4978059;28;19918;-89
2023/03/31 00:56:25;;;;;;;;;;;;;;;9.78;52.19;99814.25;4980026;28;19962;-91
2023/03/31 00:58:52;;;;;;;;;;;;;;;9.67;52.41;99827.53;4997883;28;19910;-91
2023/03/31 01:01:23;;;;;;;;;;;;;;;9.55;53.28;99820.59;4982505;28;19905;-91
2023/03/31 01:03:51;;;;;;;;;;;;;;;9.59;53.02;99817.06;4975935;28;20028;-90
2023/03/31 01:06:18;;;;;;;;;;;;;;;9.40;54.22;99812.84;4958253;28;19918;-91
2023/03/31 01:08:46;;;;;;;;;;;;;;;9.25;54.97;99816.44;4975318;28;19925;-91
2023/03/31 01:11:15;;;;;;;;;;;;;;;9.32;54.65;99821.66;4975538;28;19997;-92
2023/03/31 01:13:41;;;;;;;;;;;;;;;9.32;55.31;99815.53;4975958;28;19913;-92
2023/03/31 01:16:06;;;;;;;;;;;;;;;9.33;54.79;99812.00;4975377;28;19922;-92
2023/03/31 01:18:33;;;;;;;;;;;;;;;9.21;55.48;99822.63;4975781;28;20413;-92
2023/03/31 01:21:17;;;;;;;;;;;;;;;8.88;57.46;99821.97;4974931;28;19910;-92
2023/03/31 01:24:01;;;;;;;;;;;;;;;8.91;57.69;99827.19;4975795;28;19921;-92
2023/03/31 01:26:30;;;;;;;;;;;;;;;8.95;57.99;99831.56;4977768;28;19918;-94
2023/03/31 01:29:10;;;;;;;;;;;;;;;9.04;57.78;99818.34;4976700;28;19914;-93
2023/03/31 01:31:36;;;;;;;;;;;;;;;9.09;56.80;99816.56;4976511;28;19918;-94
2023/03/31 01:34:19;;;;;;;;;;;;;;;9.13;56.91;99813.03;4975380;28;19918;-94
2023/03/31 01:36:51;;;;;;;;;;;;;;;8.99;57.04;99820.16;4982194;28;19922;-95
2023/03/31 01:39:48;;;;;;;;;;;;;;;8.81;57.96;99821.13;4985154;28;19918;-96
2023/03/31 01:42:27;;;;;;;;;;;;;;;8.75;58.25;99816.78;4964968;28;19914;-95
2023/03/31 01:45:04;;;;;;;;;;;;;;;8.64;58.11;99815.09;4977955;28;19918;-95
2023/03/31 01:47:39;;;;;;;;;;;;;;;8.54;58.14;99816.88;4960636;28;19921;-95
2023/03/31 01:50:07;;;;;;;;;;;;;;;8.62;57.57;99814.22;4976791;28;19914;-94
2023/03/31 01:52:36;;;;;;;;;;;;;;;8.52;57.16;99803.75;4974441;28;20017;-93
2023/03/31 01:55:24;;;;;;;;;;;;;;;8.23;56.07;99796.84;4959222;28;19914;-93
2023/03/31 01:57:57;;;;;;;;;;;;;;;8.17;56.21;99788.09;4975604;28;20023;-91
2023/03/31 02:00:28;;;;;;;;;;;;;;;8.23;56.32;99788.06;4974717;28;19920;-91
2023/03/31 02:03:09;;;;;;;;;;;;;;;8.28;56.65;99793.31;4957575;28;19922;-92
2023/03/31 02:05:37;;;;;;;;;;;;;;;8.32;56.14;99795.06;4974619;28;19918;-90
2023/03/31 02:08:09;;;;;;;;;;;;;;;8.20;55.68;99793.34;4958050;28;19918;-91
2023/03/31 02:10:35;;;;;;;;;;;;;;;8.09;55.92;99790.75;4958448;28;19921;-91
2023/03/31 02:13:01;;;;;;;;;;;;;;;7.98;56.19;99761.00;4973753;28;19960;-90
2023/03/31 02:15:33;;;;;;;;;;;;;;;8.19;54.24;99789.84;4973085;28;19918;-92
2023/03/31 02:18:02;;;;;;;;;;;;;;;7.97;55.03;99782.91;4974735;28;19921;-93
2023/03/31 02:20:31;;;;;;;;;;;;;;;8.06;55.57;99783.75;4974449;28;19918;-94
2023/03/31 02:22:56;;;;;;;;;;;;;;;8.11;55.06;99789.00;4970882;28;19922;-93
2023/03/31 02:25:25;;;;;;;;;;;;;;;8.09;54.56;99776.75;4974337;28;19918;-93
2023/03/31 02:28:12;;;;;;;;;;;;;;;8.00;54.97;99765.41;4974168;28;19937;-93
2023/03/31 02:30:45;;;;;;;;;;;;;;;7.82;55.39;99768.94;4960819;28;19914;-94
2023/03/31 02:33:29;;;;;;;;;;;;;;;7.85;55.15;99765.44;4982615;28;19914;-94
2023/03/31 02:35:54;;;;;;;;;;;;;;;7.90;55.45;99766.28;4976340;28;19918;-93
2023/03/31 02:38:20;;;;;;;;;;;;;;;7.86;55.08;99765.44;4957810;28;19945;-94
2023/03/31 02:40:45;;;;;;;;;;;;;;;7.72;55.67;99759.31;4973889;28;19914;-93
2023/03/31 02:43:11;;;;;;;;;;;;;;;7.64;55.16;99764.59;4975051;28;19914;-93
2023/03/31 02:45:40;;;;;;;;;;;;;;;7.68;55.38;99765.47;4973481;28;20438;-90
2023/03/31 02:48:08;;;;;;;;;;;;;;;7.66;55.79;99765.50;4958490;28;19968;-92
2023/03/31 02:50:43;;;;;;;;;;;;;;;7.75;55.86;99771.59;4978982;28;19926;-91
2023/03/31 02:53:23;;;;;;;;;;;;;;;7.57;56.54;99773.38;4973241;28;19941;-94
2023/03/31 02:56:18;;;;;;;;;;;;;;;7.55;56.56;99775.09;4974227;28;19914;-94
2023/03/31 03:01:39;;;;;;;;;;;;;;;7.52;56.57;99783.00;5452667;23;19922;-96
2023/03/31 03:04:33;;;;;;;;;;;;;;;7.30;56.89;99795.25;5015553;28;19967;-93
2023/03/31 03:07:12;;;;;;;;;;;;;;;7.48;57.13;99778.66;4906341;29;19942;-91
2023/03/31 03:09:56;;;;;;;;;;;;;;;7.61;56.43;99775.09;4915655;29;20071;-91
2023/03/31 03:12:30;;;;;;;;;;;;;;;7.55;56.88;99775.09;4908314;29;20349;-95
2023/03/31 03:15:03;;;;;;;;;;;;;;;7.66;56.55;99785.59;4916467;29;19914;-95
2023/03/31 03:17:38;;;;;;;;;;;;;;;7.75;56.90;99782.09;4918974;29;19922;-95
2023/03/31 03:20:08;;;;;;;;;;;;;;;7.81;57.27;99795.22;4922848;29;19915;-94
2023/03/31 03:22:34;;;;;;;;;;;;;;;7.87;57.73;99797.81;4918325;29;20428;-92
2023/03/31 03:25:01;;;;;;;;;;;;;;;8.05;57.45;99804.78;4947612;28;19922;-94
2023/03/31 03:27:27;;;;;;;;;;;;;;;7.93;57.29;99791.69;4950083;29;19929;-96
2023/03/31 03:29:54;;;;;;;;;;;;;;;7.94;57.95;99796.94;4932663;29;19926;-93
2023/03/31 03:32:23;;;;;;;;;;;;;;;7.87;57.65;99803.06;4936546;29;19918;-96
2023/03/31 03:34:52;;;;;;;;;;;;;;;7.91;57.62;99806.56;4939938;29;19915;-96
2023/03/31 03:37:19;;;;;;;;;;;;;;;7.85;57.92;99803.06;4934725;29;20014;-95
2023/03/31 03:39:45;;;;;;;;;;;;;;;7.74;56.80;99801.34;4930398;29;19982;-93
2023/03/31 03:42:11;;;;;;;;;;;;;;;7.74;56.75;99804.84;4932374;29;19919;-94
2023/03/31 03:44:38;;;;;;;;;;;;;;;7.62;56.91;99799.63;4991371;28;19932;-92
2023/03/31 03:47:04;;;;;;;;;;;;;;;7.78;56.67;99800.47;5010332;28;19917;-93
2023/03/31 03:49:29;;;;;;;;;;;;;;;7.37;57.18;99811.88;4978335;28;19924;-92
2023/03/31 03:51:54;;;;;;;;;;;;;;;7.11;57.26;99808.38;4988549;28;19914;-94
2023/03/31 03:54:20;;;;;;;;;;;;;;;6.98;57.13;99809.22;4996757;28;20004;-90
2023/03/31 03:56:46;;;;;;;;;;;;;;;7.04;57.12;99805.75;5003032;28;19971;-89
2023/03/31 03:59:11;;;;;;;;;;;;;;;7.14;56.51;99811.00;5006000;28;20060;-89
2023/03/31 04:01:37;;;;;;;;;;;;;;;7.27;56.20;99804.00;4998040;28;19941;-87
2023/03/31 04:04:02;;;;;;;;;;;;;;;7.30;56.24;99814.50;5007614;28;19937;-91
2023/03/31 04:06:27;;;;;;;;;;;;;;;7.53;55.12;99801.38;4986722;28;20000;-88
2023/03/31 04:08:53;;;;;;;;;;;;;;;7.40;56.06;99804.91;5004572;28;19917;-90
2023/03/31 04:11:18;;;;;;;;;;;;;;;7.62;55.71;99804.88;5013321;28;19913;-89
2023/03/31 04:13:44;;;;;;;;;;;;;;;7.69;56.12;99810.13;4984404;28;20013;-90
2023/03/31 04:16:10;;;;;;;;;;;;;;;7.58;55.70;99795.25;5000421;28;19919;-87
2023/03/31 04:18:41;;;;;;;;;;;;;;;7.76;54.65;99804.84;5010513;28;19913;-88
2023/03/31 04:21:11;;;;;;;;;;;;;;;7.67;54.78;99801.34;5011277;28;19993;-87
2023/03/31 04:23:45;;;;;;;;;;;;;;;7.75;54.85;99796.09;4992311;28;20326;-88
2023/03/31 04:26:10;;;;;;;;;;;;;;;7.96;54.24;99789.06;4998652;28;19924;-87
2023/03/31 04:28:36;;;;;;;;;;;;;;;7.99;55.03;99779.41;5008423;28;19914;-87
2023/03/31 04:31:02;;;;;;;;;;;;;;;8.02;55.98;99774.13;5009915;28;19972;-87
2023/03/31 04:33:28;;;;;;;;;;;;;;;8.00;56.85;99775.91;5023079;28;19917;-86
2023/03/31 04:35:53;;;;;;;;;;;;;;;8.04;56.72;99779.38;5010332;28;19922;-87
2023/03/31 04:38:19;;;;;;;;;;;;;;;7.93;57.26;99773.31;5009647;28;19941;-88
2023/03/31 04:40:51;;;;;;;;;;;;;;;7.93;57.55;99776.78;5010815;28;19920;-88
2023/03/31 04:43:18;;;;;;;;;;;;;;;7.87;58.21;99772.41;5006523;28;19921;-88
2023/03/31 04:45:44;;;;;;;;;;;;;;;8.01;57.86;99776.78;5001736;28;20389;-87
2023/03/31 04:48:10;;;;;;;;;;;;;;;8.17;57.70;99785.47;5003648;28;20004;-87
2023/03/31 04:50:35;;;;;;;;;;;;;;;8.21;57.74;99782.81;5004145;28;20024;-87
2023/03/31 04:53:01;;;;;;;;;;;;;;;8.29;58.83;99782.78;4989958;28;19936;-88
2023/03/31 04:55:27;;;;;;;;;;;;;;;8.27;58.95;99778.44;5001293;28;20394;-87
2023/03/31 04:57:52;;;;;;;;;;;;;;;8.28;58.46;99791.56;5000388;28;20039;-88
2023/03/31 05:00:18;;;;;;;;;;;;;;;8.37;59.01;99785.38;5005478;28;19913;-90
2023/03/31 05:02:44;;;;;;;;;;;;;;;8.52;58.53;99790.59;5032102;28;19923;-90
2023/03/31 05:05:09;;;;;;;;;;;;;;;8.74;59.06;99780.84;5012909;28;20007;-88
2023/03/31 05:07:35;;;;;;;;;;;;;;;9.06;58.38;99765.72;5030397;28;19957;-86
2023/03/31 05:10:00;;;;;;;;;;;;;;;9.14;57.72;99759.53;5026633;28;19920;-86
2023/03/31 05:12:25;;;;;;;;;;;;;;;9.09;57.79;99758.66;5021401;28;19917;-85
2023/03/31 05:14:51;;;;;;;;;;;;;;;9.29;57.85;99753.22;5030167;28;19913;-83
2023/03/31 05:17:16;;;;;;;;;;;;;;;9.40;56.79;99753.13;5015618;28;20322;-85
2023/03/31 05:19:42;;;;;;;;;;;;;;;9.21;57.15;99747.16;5018052;28;20067;-84
2023/03/31 05:22:07;;;;;;;;;;;;;;;9.22;57.04;99743.66;5008434;28;20329;-84
2023/03/31 05:24:32;;;;;;;;;;;;;;;9.21;56.07;99734.00;5009039;28;19913;-84
2023/03/31 05:26:58;;;;;;;;;;;;;;;9.16;56.18;99722.66;5008321;28;20346;-84
2023/03/31 05:29:23;;;;;;;;;;;;;;;9.13;57.06;99723.56;5008629;28;20379;-85
2023/03/31 05:31:49;;;;;;;;;;;;;;;9.16;56.91;99711.25;4990809;28;20011;-84
2023/03/31 05:34:15;;;;;;;;;;;;;;;8.74;57.91;99724.72;5008899;28;19921;-85
2023/03/31 05:36:42;;;;;;;;;;;;;;;9.03;57.77;99724.50;5009958;28;20012;-83
2023/03/31 05:39:07;;;;;;;;;;;;;;;9.19;56.72;99724.38;5010553;28;20362;-84
2023/03/31 05:41:33;;;;;;;;;;;;;;;9.22;57.10;99719.97;5027247;28;19913;-84
2023/03/31 05:43:58;;;;;;;;;;;;;;;9.23;55.83;99718.22;5029825;28;19979;-84
2023/03/31 05:46:24;;;;;;;;;;;;;;;9.32;56.25;99729.50;5029794;28;19919;-84
2023/03/31 05:48:49;;;;;;;;;;;;;;;9.30;55.48;99725.16;5033034;28;20020;-85
2023/03/31 05:51:15;;;;;;;;;;;;;;;9.40;55.13;99715.41;5034004;28;19913;-84
2023/03/31 05:53:41;;;;;;;;;;;;;;;9.51;53.61;99703.00;5032613;28;19913;-86
2023/03/31 05:56:06;;;;;;;;;;;;;;;9.49;54.49;99699.53;5032562;28;20023;-85
2023/03/31 05:58:35;;;;;;;;;;;;;;;9.56;53.63;99709.13;5033165;28;20008;-85
2023/03/31 06:01:08;;;;;;;;;;;;;;;9.58;52.83;99712.59;5027167;28;19917;-85
2023/03/31 06:03:34;;;;;;;;;;;;;;;9.36;54.30;99718.94;5012854;28;19924;-85
2023/03/31 06:06:00;;;;;;;;;;;;;;;9.29;54.72;99700.59;5012972;28;19999;-84
2023/03/31 06:08:26;;;;;;;;;;;;;;;9.46;55.10;99703.03;5013335;28;19921;-85
2023/03/31 06:10:52;;;;;;;;;;;;;;;9.55;54.32;99685.44;5010824;28;19909;-84
2023/03/31 06:13:17;;;;;;;;;;;;;;;9.62;54.24;99702.88;4993340;28;19917;-86
2023/03/31 06:15:42;;;;;;;;;;;;;;;9.64;55.00;99698.50;4992817;28;19913;-85
2023/03/31 06:18:09;;;;;;;;;;;;;;;9.65;54.35;99700.22;4975638;28;20376;-85
2023/03/31 06:20:35;;;;;;;;;;;;;;;9.71;53.29;99702.78;4992506;28;19936;-85
2023/03/31 06:23:00;;;;;;;;;;;;;;;9.78;53.13;99707.09;4993894;28;20336;-85
2023/03/31 06:25:25;;;;;;;;;;;;;;;9.83;53.01;99704.41;4975546;28;20362;-85
2023/03/31 06:27:51;;;;;;;;;;;;;;;9.72;51.65;99709.81;4992784;28;19914;-85
2023/03/31 06:30:16;;;;;;;;;;;;;;;9.50;52.07;99706.53;4993081;28;20012;-85
2023/03/31 06:32:41;;;;;;;;;;;;;;;9.75;51.76;99701.00;4992760;28;19952;-85
2023/03/31 06:35:07;;;;;;;;;;;;;;;9.82;51.51;99705.28;4992656;28;19964;-84
2023/03/31 06:37:32;;;;;;;;;;;;;;;9.82;51.84;99686.84;4992632;28;19976;-85
2023/03/31 06:39:58;;;;;;;;;;;;;;;9.95;51.32;99698.13;4992812;28;19917;-84
2023/03/31 06:42:23;;;;;;;;;;;;;;;9.97;48.73;99696.34;4992523;28;19917;-86
2023/03/31 06:44:48;;;;;;;;;;;;;;;10.07;48.26;99695.34;4992298;28;19947;-83
2023/03/31 06:47:14;;;;;;;;;;;;;;;10.13;47.50;99691.72;4992572;28;19909;-84
2023/03/31 06:49:39;;;;;;;;;;;;;;;10.27;47.01;99687.16;4992268;28;19913;-82
2023/03/31 06:52:05;;;;;;;;;;;;;;;10.28;47.73;99683.63;4993231;28;19948;-82
2023/03/31 06:54:30;;;;;;;;;;;;;;;9.90;47.51;99679.75;4976101;28;20374;-83
2023/03/31 06:56:55;;;;;;;;;;;;;;;9.89;47.57;99674.50;4993385;28;20008;-83
2023/03/31 06:59:21;;;;;;;;;;;;;;;10.40;46.92;99674.72;4993299;28;19913;-83
2023/03/31 07:01:47;;;;;;;;;;;;;;;10.38;47.58;99666.81;4992991;28;19929;-84
2023/03/31 07:04:12;;;;;;;;;;;;;;;10.53;46.24;99665.72;4991913;28;20324;-84
2023/03/31 07:06:37;;;;;;;;;;;;;;;10.45;45.94;99669.38;4975205;28;19913;-85
2023/03/31 07:09:03;;;;;;;;;;;;;;;10.33;46.80;99675.69;4991864;28;19936;-84
2023/03/31 07:11:28;;;;;;;;;;;;;;;10.33;47.53;99667.75;4992310;28;19913;-84
2023/03/31 07:13:54;;;;;;;;;;;;;;;10.68;47.16;99664.59;4992845;28;20057;-85
2023/03/31 07:16:19;;;;;;;;;;;;;;;11.02;46.26;99668.47;4992826;28;19913;-85
2023/03/31 07:18:45;;;;;;;;;;;;;;;11.17;43.86;99656.72;4992905;28;19914;-83
2023/03/31 07:21:10;;;;;;;;;;;;;;;11.11;43.47;99665.66;4992696;28;20008;-83
2023/03/31 07:23:36;;;;;;;;;;;;;;;10.73;45.54;99661.88;4995485;28;19919;-84
2023/03/31 07:26:01;;;;;;;;;;;;;;;10.80;46.10;99668.81;5000769;28;19914;-83
2023/03/31 07:28:30;;;;;;;;;;;;;;;11.16;45.99;99666.44;4992694;28;19918;-82
2023/03/31 07:30:55;;;;;;;;;;;;;;;11.54;46.47;99667.50;4992224;28;19917;-83
2023/03/31 07:33:20;;;;;;;;;;;;;;;11.75;46.09;99665.31;4992215;28;20005;-85
2023/03/31 07:35:46;;;;;;;;;;;;;;;12.27;43.37;99660.75;4992143;28;20004;-84
2023/03/31 07:38:11;;;;;;;;;;;;;;;12.80;44.10;99658.59;4992601;28;20313;-85
2023/03/31 07:40:37;;;;;;;;;;;;;;;13.20;42.81;99648.78;5000515;28;20340;-83
2023/03/31 07:43:03;;;;;;;;;;;;;;;13.18;42.39;99654.09;5012015;28;20387;-83
2023/03/31 07:45:28;;;;;;;;;;;;;;;13.26;42.00;99657.41;4999851;28;19913;-82
2023/03/31 07:47:54;;;;;;;;;;;;;;;13.48;42.13;99648.06;4991687;28;19914;-84
2023/03/31 07:50:20;;;;;;;;;;;;;;;14.26;41.41;99652.88;5011748;28;19920;-82
2023/03/31 07:52:46;;;;;;;;;;;;;;;14.21;41.07;99652.13;5011856;28;19913;-84
2023/03/31 07:55:12;;;;;;;;;;;;;;;13.78;41.41;99663.09;5011089;28;19963;-84
2023/03/31 07:57:37;;;;;;;;;;;;;;;14.31;40.90;99661.53;5011463;28;20003;-84
2023/03/31 08:00:06;;;;;;;;;;;;;;;14.10;40.45;99658.63;4993851;28;20267;-82
2023/03/31 08:02:31;;;;;;;;;;;;;;;14.35;39.41;99655.25;5011280;28;19924;-82
2023/03/31 08:04:57;;;;;;;;;;;;;;;13.96;41.18;99644.91;5011246;28;20435;-83
2023/03/31 08:07:22;;;;;;;;;;;;;;;13.87;40.60;99643.41;5011351;28;19924;-84
2023/03/31 08:09:48;;;;;;;;;;;;;;;14.37;38.79;99637.47;5010829;28;19913;-82
2023/03/31 08:12:14;;;;;;;;;;;;;;;14.56;38.32;99632.44;5011410;28;20071;-82
2023/03/31 08:14:39;;;;;;;;;;;;;;;15.02;37.82;99624.75;5011135;28;19913;-82
2023/03/31 08:17:04;;;;;;;;;;;;;;;14.62;38.17;99621.66;5011196;28;19914;-83
2023/03/31 08:19:30;;;;;;;;;;;;;;;15.17;38.96;99612.75;5011325;28;19909;-83
2023/03/31 08:21:55;;;;;;;;;;;;;;;15.98;37.11;99600.06;5011235;28;19980;-83
2023/03/31 08:24:20;;;;;;;;;;;;;;;16.04;36.39;99590.03;5011419;28;19913;-82
2023/03/31 08:26:46;;;;;;;;;;;;;;;16.29;37.07;99587.25;5011236;28;19916;-82
2023/03/31 08:29:11;;;;;;;;;;;;;;;16.47;35.92;99580.34;5025766;28;20353;-83
2023/03/31 08:31:37;;;;;;;;;;;;;;;16.58;37.03;99577.22;5010776;28;20383;-83
2023/03/31 08:34:03;;;;;;;;;;;;;;;16.43;36.54;99570.72;5010926;28;19913;-82
2023/03/31 08:36:29;;;;;;;;;;;;;;;16.66;38.94;99560.94;5010902;28;19913;-83
2023/03/31 08:38:54;;;;;;;;;;;;;;;16.79;40.72;99554.16;5011229;28;19913;-84
2023/03/31 08:41:19;;;;;;;;;;;;;;;17.46;35.37;99553.94;4994424;28;20377;-82
2023/03/31 08:43:47;;;;;;;;;;;;;;;17.48;36.34;99544.91;4991441;28;19920;-82
2023/03/31 08:46:14;;;;;;;;;;;;;;;17.14;35.69;99545.59;4990749;28;20423;-83
2023/03/31 08:48:49;;;;;;;;;;;;;;;17.10;35.93;99541.31;4991074;28;20277;-82
2023/03/31 08:51:38;;;;;;;;;;;;;;;16.72;37.51;99533.19;4991200;28;19917;-79
2023/03/31 08:54:23;;;;;;;;;;;;;;;16.98;37.34;99532.94;4990281;28;19914;-83
2023/03/31 08:56:50;;;;;;;;;;;;;;;17.40;37.44;99525.75;4990036;28;20407;-85
2023/03/31 08:59:24;;;;;;;;;;;;;;;17.44;36.12;99516.69;4990549;28;20323;-84
2023/03/31 09:01:55;;;;;;;;;;;;;;;17.49;36.82;99520.00;4990554;28;19997;-82
2023/03/31 09:04:20;;;;;;;;;;;;;;;17.18;36.94;99504.53;4990887;28;19924;-81
2023/03/31 09:07:04;;;;;;;;;;;;;;;17.41;36.57;99494.59;4982328;28;19948;-84
2023/03/31 09:09:47;;;;;;;;;;;;;;;17.33;36.86;99484.28;5005522;28;19913;-84
2023/03/31 09:12:15;;;;;;;;;;;;;;;17.36;37.28;99477.03;5001846;28;19921;-84
2023/03/31 09:14:46;;;;;;;;;;;;;;;17.13;36.94;99479.88;4991298;28;19960;-84
2023/03/31 09:17:14;;;;;;;;;;;;;;;17.16;37.02;99485.06;4999306;28;19961;-84
2023/03/31 09:19:55;;;;;;;;;;;;;;;17.36;36.98;99471.72;4994704;28;20000;-84
2023/03/31 09:22:26;;;;;;;;;;;;;;;17.75;37.36;99464.56;5002086;28;19914;-84
2023/03/31 09:24:56;;;;;;;;;;;;;;;18.04;37.97;99456.94;4993993;28;19921;-85
2023/03/31 09:27:23;;;;;;;;;;;;;;;18.17;38.38;99449.22;5002290;28;19928;-83
2023/03/31 09:29:54;;;;;;;;;;;;;;;18.36;35.64;99455.34;4996661;28;19916;-84
2023/03/31 09:32:21;;;;;;;;;;;;;;;18.55;35.58;99452.59;4994115;28;20083;-86
2023/03/31 09:34:50;;;;;;;;;;;;;;;18.19;36.37;99440.16;4995265;28;19913;-83
2023/03/31 09:37:16;;;;;;;;;;;;;;;18.18;36.97;99449.13;5013291;28;19914;-83
2023/03/31 09:39:41;;;;;;;;;;;;;;;18.11;35.63;99433.50;5013355;28;20371;-83
2023/03/31 09:42:09;;;;;;;;;;;;;;;17.96;36.78;99433.31;5004712;28;19917;-82
2023/03/31 09:44:37;;;;;;;;;;;;;;;18.07;36.50;99425.66;5000583;28;20004;-83
2023/03/31 09:47:06;;;;;;;;;;;;;;;18.39;37.24;99415.13;5009813;28;19944;-83
2023/03/31 09:49:33;;;;;;;;;;;;;;;18.70;35.86;99407.31;5002479;28;19917;-83
2023/03/31 09:52:08;;;;;;;;;;;;;;;18.47;35.00;99405.84;4993042;28;19914;-83
2023/03/31 09:54:35;;;;;;;;;;;;;;;18.60;35.64;99413.16;4993430;28;20339;-82
2023/03/31 09:57:11;;;;;;;;;;;;;;;18.48;36.66;99410.28;4993527;28;19964;-84
2023/03/31 09:59:36;;;;;;;;;;;;;;;18.71;35.57;99396.56;4993403;28;19972;-82
2023/03/31 10:02:04;;;;;;;;;;;;;;;19.12;35.45;99393.50;4993277;28;19925;-82
2023/03/31 10:04:31;;;;;;;;;;;;;;;19.37;34.32;99392.13;4993725;28;19914;-83
2023/03/31 10:06:58;;;;;;;;;;;;;;;19.40;35.45;99375.91;4993370;28;19910;-82
2023/03/31 10:09:29;;;;;;;;;;;;;;;19.10;34.57;99375.81;4993283;28;19960;-81
2023/03/31 10:11:56;;;;;;;;;;;;;;;19.03;35.47;99377.97;4993255;28;19964;-82
2023/03/31 10:14:45;;;;;;;;;;;;;;;19.03;34.71;99377.06;4993074;28;19959;-82
2023/03/31 10:17:20;;;;;;;;;;;;;;;19.33;35.31;99370.03;4914065;29;19982;-83
2023/03/31 10:20:05;;;;;;;;;;;;;;;19.60;35.22;99366.75;4913695;29;19922;-83
2023/03/31 10:22:31;;;;;;;;;;;;;;;19.44;35.11;99361.38;4914555;29;20128;-83
2023/03/31 10:25:13;;;;;;;;;;;;;;;19.57;34.44;99350.88;4914425;29;20018;-83
2023/03/31 10:27:40;;;;;;;;;;;;;;;19.98;34.51;99357.44;4914372;29;19947;-83
2023/03/31 10:30:09;;;;;;;;;;;;;;;19.84;34.22;99353.75;4913507;29;19915;-83
2023/03/31 10:32:39;;;;;;;;;;;;;;;20.15;35.29;99348.41;4913900;29;19955;-84
2023/03/31 10:35:07;;;;;;;;;;;;;;;20.44;33.53;99341.28;4921438;29;19979;-82
2023/03/31 10:37:34;;;;;;;;;;;;;;;20.89;35.22;99328.69;4933744;29;20026;-83
2023/03/31 10:40:01;;;;;;;;;;;;;;;20.86;32.73;99331.56;4917568;29;19914;-82
2023/03/31 10:42:26;;;;;;;;;;;;;;;20.73;33.50;99326.13;4933552;29;19994;-82
2023/03/31 10:45:15;;;;;;;;;;;;;;;21.08;33.83;99322.97;4933169;29;20405;-83
2023/03/31 10:47:40;;;;;;;;;;;;;;;21.39;34.39;99322.81;4927917;29;19921;-83
2023/03/31 10:50:13;;;;;;;;;;;;;;;21.51;32.90;99313.16;4933441;29;19915;-82
2023/03/31 10:52:46;;;;;;;;;;;;;;;21.68;33.98;99309.34;4933275;29;20451;-82
2023/03/31 10:55:12;;;;;;;;;;;;;;;21.72;32.31;99306.34;4988505;28;19979;-82
2023/03/31 10:57:56;;;;;;;;;;;;;;;21.06;31.65;99255.19;4993160;28;19920;-84
2023/03/31 11:00:36;;;;;;;;;;;;;;;21.59;32.48;99295.53;4993274;28;19925;-81
2023/03/31 11:03:14;;;;;;;;;;;;;;;21.74;31.68;99284.78;4993347;28;19913;-84
2023/03/31 11:05:48;;;;;;;;;;;;;;;21.42;31.54;99274.31;4993178;28;19983;-82
2023/03/31 11:08:22;;;;;;;;;;;;;;;21.61;31.20;99269.50;4992984;28;19914;-82
2023/03/31 11:10:53;;;;;;;;;;;;;;;21.66;31.36;99266.50;4993304;28;20332;-82
2023/03/31 11:13:25;;;;;;;;;;;;;;;21.77;31.22;99252.34;4992737;28;19921;-82
2023/03/31 11:16:07;;;;;;;;;;;;;;;21.71;30.52;99258.13;4992636;28;19913;-81
2023/03/31 11:18:36;;;;;;;;;;;;;;;21.83;31.00;99246.56;4992357;28;20008;-84
2023/03/31 11:21:10;;;;;;;;;;;;;;;22.46;30.96;99246.66;4992977;28;19914;-81
2023/03/31 11:23:56;;;;;;;;;;;;;;;22.07;31.85;99235.91;4992334;28;19988;-82
2023/03/31 11:26:30;;;;;;;;;;;;;;;22.43;32.10;99233.47;4927849;29;19979;-82
2023/03/31 11:29:05;;;;;;;;;;;;;;;22.53;29.83;99234.53;4909819;29;19931;-82
2023/03/31 11:31:50;;;;;;;;;;;;;;;22.66;30.49;99219.25;4932165;29;20452;-82
2023/03/31 11:34:19;;;;;;;;;;;;;;;22.79;30.36;99212.97;4932388;29;19914;-82
2023/03/31 11:36:44;;;;;;;;;;;;;;;23.15;30.94;99213.94;4932163;29;19966;-82
2023/03/31 11:39:09;;;;;;;;;;;;;;;22.97;30.11;99206.22;4932529;29;19957;-83
2023/03/31 11:41:38;;;;;;;;;;;;;;;23.07;29.62;99201.88;4932464;29;19936;-82
2023/03/31 11:44:05;;;;;;;;;;;;;;;22.73;29.68;99210.72;4930892;29;20001;-83
2023/03/31 11:46:36;;;;;;;;;;;;;;;22.79;31.16;99194.16;4928440;29;20005;-82
2023/03/31 11:49:03;;;;;;;;;;;;;;;23.17;31.56;99190.44;4932216;29;20009;-84
2023/03/31 11:51:33;;;;;;;;;;;;;;;23.54;28.80;99177.75;4927249;29;19922;-84
2023/03/31 11:54:01;;;;;;;;;;;;;;;23.33;29.15;99180.25;4931947;29;19919;-82
2023/03/31 11:56:30;;;;;;;;;;;;;;;22.92;29.68;99172.56;4927143;29;20302;-85
2023/03/31 11:58:58;;;;;;;;;;;;;;;22.61;29.12;99159.56;4927263;29;20321;-84
2023/03/31 12:01:23;;;;;;;;;;;;;;;22.79;29.62;99164.56;4937276;29;19926;-85
2023/03/31 12:03:56;;;;;;;;;;;;;;;22.72;29.65;99166.84;4994632;28;20007;-84
2023/03/31 12:06:23;;;;;;;;;;;;;;;22.65;30.23;99169.13;5020529;28;20008;-85
2023/03/31 12:08:57;;;;;;;;;;;;;;;22.71;30.18;99165.16;5012941;28;19914;-84
2023/03/31 12:11:28;;;;;;;;;;;;;;;22.86;30.84;99160.44;5021842;28;19917;-85
2023/03/31 12:13:56;;;;;;;;;;;;;;;22.68;28.63;99154.63;5001700;28;20296;-85
2023/03/31 12:16:24;;;;;;;;;;;;;;;22.87;29.03;99149.56;5019485;28;19968;-84
2023/03/31 12:19:01;;;;;;;;;;;;;;;22.86;29.01;99149.69;5024780;28;20325;-84
2023/03/31 12:21:28;;;;;;;;;;;;;;;22.74;28.84;99150.59;5023262;28;19955;-83
2023/03/31 12:23:54;;;;;;;;;;;;;;;22.60;29.77;99135.50;5015044;28;19921;-84
2023/03/31 12:26:28;;;;;;;;;;;;;;;22.87;28.48;99133.44;5015098;28;19913;-84
2023/03/31 12:28:56;;;;;;;;;;;;;;;22.93;29.25;99129.44;4996888;28;19914;-86
2023/03/31 12:31:23;;;;;;;;;;;;;;;23.17;28.38;99139.34;5015005;28;20395;-85
2023/03/31 12:33:53;;;;;;;;;;;;;;;22.97;29.17;99136.31;5024332;28;19913;-84
2023/03/31 12:36:21;;;;;;;;;;;;;;;22.83;28.43;99134.66;5023063;28;19924;-86
2023/03/31 12:38:53;;;;;;;;;;;;;;;22.84;28.62;99127.44;5016157;28;19953;-85
2023/03/31 12:41:27;;;;;;;;;;;;;;;22.59;28.71;99128.41;4997367;28;20338;-86
2023/03/31 12:43:53;;;;;;;;;;;;;;;22.61;29.30;99130.00;5012771;28;20290;-84
2023/03/31 12:46:39;;;;;;;;;;;;;;;22.61;29.22;99127.31;5013882;28;19917;-84
2023/03/31 12:49:04;;;;;;;;;;;;;;;22.68;28.56;99130.44;5010039;28;19964;-84
2023/03/31 12:51:42;;;;;;;;;;;;;;;22.57;28.57;99119.59;4994917;28;20072;-83
2023/03/31 12:54:19;;;;;;;;;;;;;;;22.59;28.25;99115.81;5020502;28;20379;-84
2023/03/31 12:57:02;;;;;;;;;;;;;;;22.89;29.19;99114.50;5012260;28;19937;-82
2023/03/31 12:59:31;;;;;;;;;;;;;;;23.27;29.30;99105.38;5021168;28;19913;-83
2023/03/31 13:02:08;;;;;;;;;;;;;;;23.18;27.43;99092.63;5029554;28;19920;-84
2023/03/31 13:04:35;;;;;;;;;;;;;;;22.70;27.42;99101.59;5021961;28;19921;-83
2023/03/31 13:07:01;;;;;;;;;;;;;;;22.58;27.25;99089.06;5016762;28;20391;-82